createdAt,value
2023-03-10T00:00:23.582Z,98876.81
2023-03-10T00:02:51.430Z,98876.34
2023-03-10T00:05:21.226Z,98868.25
2023-03-10T00:07:50.191Z,98860.41
2023-03-10T00:10:18.770Z,98857.16
2023-03-10T00:12:46.576Z,98850.44
2023-03-10T00:15:15.169Z,98856.91
2023-03-10T00:17:42.836Z,98858.78
2023-03-10T00:20:13.347Z,98836.09
2023-03-10T00:22:42.665Z,98836.66
2023-03-10T00:25:12.518Z,98836.94
2023-03-10T00:27:40.155Z,98833.19
2023-03-10T00:30:09.309Z,98832.38
2023-03-10T00:32:37.254Z,98822.91
2023-03-10T00:35:05.916Z,98818.59
2023-03-10T00:37:33.662Z,98806.41
2023-03-10T00:40:03.960Z,98807.03
2023-03-10T00:42:31.686Z,98801.06
2023-03-10T00:44:59.379Z,98787.03
2023-03-10T00:47:27.038Z,98789.44
2023-03-10T00:49:54.830Z,98780.28
2023-03-10T00:52:22.439Z,98773.78
2023-03-10T00:54:51.392Z,98768.09
2023-03-10T00:57:20.411Z,98757.56
2023-03-10T00:59:51.690Z,98761.34
2023-03-10T01:02:19.702Z,98762.69
2023-03-10T01:04:47.595Z,98748.94
2023-03-10T01:07:15.326Z,98747.56
2023-03-10T01:09:42.967Z,98755.13
2023-03-10T01:12:10.884Z,98738.13
2023-03-10T01:14:40.679Z,98730.03
2023-03-10T01:17:08.392Z,98716.53
2023-03-10T01:19:36.061Z,98715.47
2023-03-10T01:22:03.721Z,98708.69
2023-03-10T01:24:31.451Z,98697.66
2023-03-10T01:26:59.125Z,98687.41
2023-03-10T01:29:26.806Z,98680.91
2023-03-10T01:31:55.852Z,98676.59
2023-03-10T01:34:23.542Z,98660.69
2023-03-10T01:36:51.246Z,98650.97
2023-03-10T01:39:18.901Z,98650.69
2023-03-10T01:41:46.586Z,98644.22
2023-03-10T01:44:16.814Z,98650.44
2023-03-10T01:46:51.181Z,98638.28
2023-03-10T01:49:25.772Z,98632.06
2023-03-10T01:51:59.433Z,98633.41
2023-03-10T01:54:31.729Z,98618.03
2023-03-10T01:56:59.990Z,98609.66
2023-03-10T01:59:28.814Z,98614.25
2023-03-10T02:01:58.883Z,98605.34
2023-03-10T02:04:36.077Z,98603.72
2023-03-10T02:07:07.366Z,98594.25
2023-03-10T02:09:38.547Z,98596.69
2023-03-10T02:12:08.484Z,98569.97
2023-03-10T02:14:36.691Z,98569.16
2023-03-10T02:17:05.667Z,98566.75
2023-03-10T02:19:48.468Z,98550.81
2023-03-10T02:22:17.156Z,98551.09
2023-03-10T02:24:50.810Z,98545.94
2023-03-10T02:27:22.779Z,98544.06
2023-03-10T02:29:59.713Z,98521.69
2023-03-10T02:32:30.864Z,98534.06
2023-03-10T02:34:58.646Z,98517.63
2023-03-10T02:37:29.918Z,98524.88
2023-03-10T02:39:57.986Z,98513.31
2023-03-10T02:42:31.854Z,98496.28
2023-03-10T02:44:59.863Z,98509.22
2023-03-10T02:47:27.614Z,98498.97
2023-03-10T02:49:55.277Z,98486.03
2023-03-10T02:52:30.510Z,98483.03
2023-03-10T02:54:58.183Z,98470.91
2023-03-10T02:57:27.355Z,98464.13
2023-03-10T02:59:54.983Z,98459.28
2023-03-10T03:02:22.747Z,98456.06
2023-03-10T03:04:50.405Z,98456.31
2023-03-10T03:07:18.020Z,98457.97
2023-03-10T03:09:45.912Z,98455.50
2023-03-10T03:12:13.600Z,98439.00
2023-03-10T03:14:42.580Z,98441.97
2023-03-10T03:17:10.351Z,98429.03
2023-03-10T03:19:38.064Z,98430.41
2023-03-10T03:22:05.761Z,98427.16
2023-03-10T03:24:33.526Z,98425.25
2023-03-10T03:27:01.214Z,98424.72
2023-03-10T03:29:28.951Z,98425.81
2023-03-10T03:31:57.989Z,98412.56
2023-03-10T03:34:25.661Z,98409.34
2023-03-10T03:36:53.342Z,98407.97
2023-03-10T03:39:21.020Z,98400.16
2023-03-10T03:41:53.039Z,98396.09
2023-03-10T03:44:20.877Z,98398.53
2023-03-10T03:46:48.497Z,98393.69
2023-03-10T03:49:17.587Z,98399.91
2023-03-10T03:51:45.646Z,98382.38
2023-03-10T03:54:13.306Z,98383.16
2023-03-10T03:56:41.253Z,98369.38
2023-03-10T03:59:09.012Z,98357.47
2023-03-10T04:01:36.734Z,98345.34
2023-03-10T04:04:04.446Z,98337.78
2023-03-10T04:06:33.655Z,98333.41
2023-03-10T04:09:01.395Z,98327.78
2023-03-10T04:11:29.111Z,98314.00
2023-03-10T04:13:56.861Z,98312.38
2023-03-10T04:16:24.609Z,98305.09
2023-03-10T04:18:52.386Z,98299.41
2023-03-10T04:21:20.084Z,98303.50
2023-03-10T04:23:49.134Z,98293.50
2023-03-10T04:26:16.838Z,98288.66
2023-03-10T04:28:44.539Z,98293.50
2023-03-10T04:31:15.740Z,98294.59
2023-03-10T04:33:43.573Z,98290.03
2023-03-10T04:36:11.595Z,98293.50
2023-03-10T04:38:40.020Z,98293.81
2023-03-10T04:41:09.492Z,98303.78
2023-03-10T04:43:38.381Z,98299.97
2023-03-10T04:46:06.716Z,98298.88
2023-03-10T04:48:35.071Z,98289.19
2023-03-10T04:51:05.934Z,98281.28
2023-03-10T04:53:34.466Z,98280.78
2023-03-10T04:56:02.981Z,98283.22
2023-03-10T04:58:32.479Z,98277.81
2023-03-10T05:01:03.450Z,98285.69
2023-03-10T05:03:31.293Z,98273.78
2023-03-10T05:05:59.075Z,98260.56
2023-03-10T05:08:26.729Z,98255.69
2023-03-10T05:10:54.351Z,98261.34
2023-03-10T05:13:22.059Z,98256.75
2023-03-10T05:15:51.156Z,98254.59
2023-03-10T05:18:19.494Z,98243.53
2023-03-10T05:20:47.170Z,98234.91
2023-03-10T05:23:14.838Z,98240.31
2023-03-10T05:25:42.556Z,98237.31
2023-03-10T05:28:10.204Z,98228.16
2023-03-10T05:30:37.844Z,98224.91
2023-03-10T05:33:06.899Z,98218.41
2023-03-10T05:35:34.574Z,98216.78
2023-03-10T05:38:03.366Z,98210.31
2023-03-10T05:40:31.064Z,98211.91
2023-03-10T05:42:58.841Z,98210.84
2023-03-10T05:45:26.519Z,98207.59
2023-03-10T05:47:54.133Z,98208.97
2023-03-10T05:50:23.224Z,98203.28
2023-03-10T05:52:51.314Z,98206.78
2023-03-10T05:55:21.104Z,98203.53
2023-03-10T05:57:49.105Z,98193.53
2023-03-10T06:00:17.589Z,98194.88
2023-03-10T06:02:45.244Z,98185.97
2023-03-10T06:05:13.564Z,98190.31
2023-03-10T06:07:43.073Z,98184.63
2023-03-10T06:10:11.761Z,98184.06
2023-03-10T06:12:39.718Z,98174.59
2023-03-10T06:15:08.603Z,98173.25
2023-03-10T06:17:36.280Z,98179.44
2023-03-10T06:20:04.669Z,98178.09
2023-03-10T06:22:32.341Z,98174.00
2023-03-10T06:25:01.575Z,98176.44
2023-03-10T06:27:30.785Z,98178.88
2023-03-10T06:29:58.433Z,98171.03
2023-03-10T06:32:26.199Z,98175.06
2023-03-10T06:34:53.898Z,98169.66
2023-03-10T06:37:21.722Z,98170.19
2023-03-10T06:39:49.436Z,98171.81
2023-03-10T06:42:18.552Z,98172.84
2023-03-10T06:44:48.729Z,98177.41
2023-03-10T06:47:16.784Z,98167.94
2023-03-10T06:49:44.446Z,98170.09
2023-03-10T06:52:12.143Z,98162.56
2023-03-10T06:54:39.806Z,98173.63
2023-03-10T06:57:07.518Z,98170.38
2023-03-10T06:59:36.540Z,98176.28
2023-03-10T07:02:04.286Z,98157.66
2023-03-10T07:04:32.004Z,98167.66
2023-03-10T07:06:59.749Z,98169.53
2023-03-10T07:09:27.409Z,98168.75
2023-03-10T07:11:55.102Z,98166.84
2023-03-10T07:14:22.787Z,98162.22
2023-03-10T07:16:51.835Z,98160.31
2023-03-10T07:19:19.526Z,98161.41
2023-03-10T07:21:47.239Z,98154.91
2023-03-10T07:24:15.001Z,98158.41
2023-03-10T07:26:42.896Z,98149.69
2023-03-10T07:29:10.878Z,98153.16
2023-03-10T07:31:38.627Z,98158.88
2023-03-10T07:34:07.676Z,98153.97
2023-03-10T07:36:35.399Z,98154.72
2023-03-10T07:39:03.068Z,98152.31
2023-03-10T07:41:30.697Z,98157.72
2023-03-10T07:43:58.433Z,98158.00
2023-03-10T07:46:26.195Z,98154.50
2023-03-10T07:48:53.939Z,98146.81
2023-03-10T07:51:23.128Z,98153.56
2023-03-10T07:53:50.904Z,98150.31
2023-03-10T07:56:18.518Z,98153.59
2023-03-10T07:58:46.283Z,98154.13
2023-03-10T08:01:17.458Z,98148.66
2023-03-10T08:03:46.110Z,98143.25
2023-03-10T08:06:18.293Z,98146.78
2023-03-10T08:08:47.622Z,98144.81
2023-03-10T08:11:15.408Z,98134.75
2023-03-10T08:13:45.278Z,98142.28
2023-03-10T08:16:13.166Z,98132.19
2023-03-10T08:18:40.833Z,98138.16
2023-03-10T08:21:09.906Z,98133.56
2023-03-10T08:23:39.455Z,98138.69
2023-03-10T08:26:13.371Z,98131.59
2023-03-10T08:28:41.174Z,98134.53
2023-03-10T08:31:10.442Z,98131.78
2023-03-10T08:33:38.809Z,98130.09
2023-03-10T08:36:09.179Z,98133.56
2023-03-10T08:38:37.055Z,98143.00
2023-03-10T08:41:14.855Z,98139.22
2023-03-10T08:43:43.527Z,98137.25
2023-03-10T08:46:12.500Z,98130.19
2023-03-10T08:48:42.668Z,98135.84
2023-03-10T08:51:14.380Z,98136.38
2023-03-10T08:53:43.811Z,98146.34
2023-03-10T08:56:12.905Z,98134.13
2023-03-10T08:58:40.666Z,98141.09
2023-03-10T09:01:08.406Z,98139.31
2023-03-10T09:03:36.820Z,98143.13
2023-03-10T09:06:04.975Z,98144.47
2023-03-10T09:08:32.660Z,98150.91
2023-03-10T09:11:00.273Z,98144.13
2023-03-10T09:13:29.337Z,98148.34
2023-03-10T09:15:57.067Z,98140.66
2023-03-10T09:18:24.811Z,98144.03
2023-03-10T09:20:52.901Z,98153.63
2023-03-10T09:23:20.845Z,98146.16
2023-03-10T09:25:48.533Z,98153.63
2023-03-10T09:28:18.567Z,98165.47
2023-03-10T09:30:48.220Z,98160.47
2023-03-10T09:33:18.172Z,98193.59
2023-03-10T09:35:52.853Z,98172.94
2023-03-10T09:38:30.466Z,98174.84
2023-03-10T09:41:09.798Z,98182.47
2023-03-10T09:43:40.246Z,98173.53
2023-03-10T09:46:13.394Z,98176.16
2023-03-10T09:48:51.591Z,98170.06
2023-03-10T09:51:23.009Z,98173.41
2023-03-10T09:53:57.863Z,98167.53
2023-03-10T09:56:30.160Z,98165.81
2023-03-10T09:59:00.924Z,98170.06
2023-03-10T10:01:33.567Z,98172.59
2023-03-10T10:04:06.472Z,98176.09
2023-03-10T10:06:37.366Z,98174.72
2023-03-10T10:09:09.712Z,98180.03
2023-03-10T10:11:37.826Z,98167.97
2023-03-10T10:14:38.410Z,98173.03
2023-03-10T10:17:22.205Z,98172.53
2023-03-10T10:19:51.207Z,98170.13
2023-03-10T10:22:24.610Z,98180.78
2023-03-10T10:25:17.999Z,98187.13
2023-03-10T10:27:46.330Z,98189.75
2023-03-10T10:30:28.845Z,98188.53
2023-03-10T10:33:00.128Z,98186.19
2023-03-10T10:35:31.129Z,98191.94
2023-03-10T10:38:07.724Z,98192.22
2023-03-10T10:40:37.285Z,98191.44
2023-03-10T10:43:07.584Z,98196.25
2023-03-10T10:45:37.248Z,98197.25
2023-03-10T10:48:06.908Z,98203.69
2023-03-10T10:50:36.080Z,98207.72
2023-03-10T10:53:20.647Z,98209.84
2023-03-10T10:55:59.716Z,98212.94
2023-03-10T10:58:30.861Z,98208.09
2023-03-10T11:01:01.002Z,98208.88
2023-03-10T11:03:33.477Z,98218.50
2023-03-10T11:06:02.935Z,98214.38
2023-03-10T11:08:34.952Z,98213.84
2023-03-10T11:11:08.879Z,98218.03
2023-03-10T11:13:44.916Z,98210.00
2023-03-10T11:16:22.770Z,98214.34
2023-03-10T11:18:58.435Z,98216.31
2023-03-10T11:21:29.498Z,98213.16
2023-03-10T11:24:04.729Z,98218.41
2023-03-10T11:26:45.622Z,98215.19
2023-03-10T11:29:25.711Z,98216.72
2023-03-10T11:32:00.932Z,98219.53
2023-03-10T11:34:32.863Z,98215.19
2023-03-10T11:37:14.288Z,98227.09
2023-03-10T11:39:49.394Z,98220.00
2023-03-10T11:42:27.353Z,98222.38
2023-03-10T11:45:04.791Z,98223.34
2023-03-10T11:47:49.150Z,98207.72
2023-03-10T11:50:30.046Z,98208.59
2023-03-10T11:53:03.404Z,98210.66
2023-03-10T11:55:32.964Z,98226.53
2023-03-10T11:58:05.112Z,98221.88
2023-03-10T12:00:37.775Z,98224.13
2023-03-10T12:03:16.066Z,98218.81
2023-03-10T12:05:50.796Z,98215.59
2023-03-10T12:08:20.011Z,98220.91
2023-03-10T12:10:49.391Z,98216.75
2023-03-10T12:13:24.520Z,98220.78
2023-03-10T12:15:56.232Z,98220.00
2023-03-10T12:18:26.690Z,98212.31
2023-03-10T12:21:21.955Z,98207.38
2023-03-10T12:23:51.389Z,98210.44
2023-03-10T12:26:55.343Z,98217.06
2023-03-10T12:29:40.446Z,98209.19
2023-03-10T12:32:42.889Z,98207.66
2023-03-10T12:35:37.302Z,98207.25
2023-03-10T12:38:28.806Z,98212.66
2023-03-10T12:40:56.822Z,98211.03
2023-03-10T12:43:55.462Z,98212.66
2023-03-10T12:46:30.635Z,98211.72
2023-03-10T12:49:15.499Z,98213.19
2023-03-10T12:51:47.738Z,98207.88
2023-03-10T12:54:45.984Z,98217.16
2023-03-10T12:57:20.157Z,98215.56
2023-03-10T12:59:57.697Z,98218.41
2023-03-10T13:02:33.861Z,98223.69
2023-03-10T13:05:06.896Z,98226.69
2023-03-10T13:07:36.402Z,98221.84
2023-03-10T13:10:06.311Z,98218.09
2023-03-10T13:12:43.649Z,98208.66
2023-03-10T13:15:23.861Z,98206.91
2023-03-10T13:17:55.130Z,98224.38
2023-03-10T13:20:24.504Z,98215.91
2023-03-10T13:22:56.313Z,98211.47
2023-03-10T13:25:26.614Z,98214.34
2023-03-10T13:27:57.469Z,98205.53
2023-03-10T13:30:27.759Z,98212.88
2023-03-10T13:32:58.262Z,98212.44
2023-03-10T13:35:26.698Z,98208.75
2023-03-10T13:38:15.644Z,98215.13
2023-03-10T13:40:47.452Z,98212.84
2023-03-10T13:43:33.604Z,98224.22
2023-03-10T13:46:03.088Z,98221.66
2023-03-10T13:48:33.303Z,98212.69
2023-03-10T13:51:09.633Z,98205.94
2023-03-10T13:53:37.215Z,98214.09
2023-03-10T13:56:21.273Z,98216.69
2023-03-10T13:58:51.004Z,98209.63
2023-03-10T14:01:21.583Z,98214.75
2023-03-10T14:03:54.660Z,98216.97
2023-03-10T14:06:22.861Z,98219.34
2023-03-10T14:08:51.467Z,98226.81
2023-03-10T14:11:36.239Z,98226.81
2023-03-10T14:14:05.281Z,98218.94
2023-03-10T14:16:51.365Z,98212.22
2023-03-10T14:19:38.986Z,98209.78
2023-03-10T14:22:23.492Z,98213.09
2023-03-10T14:24:51.238Z,98209.38
2023-03-10T14:27:20.809Z,98214.16
2023-03-10T14:29:51.223Z,98217.00
2023-03-10T14:32:19.279Z,98217.44
2023-03-10T14:34:47.333Z,98221.41
2023-03-10T14:37:15.156Z,98210.94
2023-03-10T14:39:43.177Z,98212.41
2023-03-10T14:42:21.282Z,98206.31
2023-03-10T14:44:50.249Z,98211.94
2023-03-10T14:47:18.911Z,98211.63
2023-03-10T14:49:47.055Z,98201.59
2023-03-10T14:52:16.789Z,98205.75
2023-03-10T14:54:45.300Z,98208.47
2023-03-10T14:57:15.575Z,98212.63
2023-03-10T14:59:44.611Z,98220.59
2023-03-10T15:02:21.162Z,98211.97
2023-03-10T15:04:48.986Z,98201.72
2023-03-10T15:07:17.602Z,98204.78
2023-03-10T15:09:45.724Z,98215.75
2023-03-10T15:12:15.052Z,98228.59
2023-03-10T15:14:47.583Z,98229.22
2023-03-10T15:17:15.245Z,98217.50
2023-03-10T15:19:42.883Z,98222.16
2023-03-10T15:22:10.536Z,98231.09
2023-03-10T15:24:38.156Z,98223.97
2023-03-10T15:27:05.889Z,98232.75
2023-03-10T15:29:33.542Z,98234.97
2023-03-10T15:32:02.818Z,98231.44
2023-03-10T15:34:30.466Z,98234.19
2023-03-10T15:36:58.185Z,98241.22
2023-03-10T15:39:31.891Z,98238.13
2023-03-10T15:42:00.473Z,98229.06
2023-03-10T15:44:28.170Z,98233.41
2023-03-10T15:46:55.967Z,98233.59
2023-03-10T15:49:25.086Z,98238.84
2023-03-10T15:51:52.750Z,98245.66
2023-03-10T15:54:20.469Z,98245.28
2023-03-10T15:56:48.114Z,98248.38
2023-03-10T15:59:16.095Z,98249.78
2023-03-10T16:01:43.794Z,98250.66
2023-03-10T16:04:11.495Z,98260.84
2023-03-10T16:06:40.498Z,98263.53
2023-03-10T16:09:09.166Z,98265.31
2023-03-10T16:11:36.941Z,98248.53
2023-03-10T16:14:05.131Z,98240.09
2023-03-10T16:16:32.832Z,98245.38
2023-03-10T16:19:00.571Z,98244.75
2023-03-10T16:21:28.309Z,98223.31
2023-03-10T16:23:58.146Z,98215.00
2023-03-10T16:26:25.988Z,98239.47
2023-03-10T16:28:55.501Z,98258.28
2023-03-10T16:31:26.172Z,98246.59
2023-03-10T16:33:55.041Z,98246.19
2023-03-10T16:36:24.933Z,98244.34
2023-03-10T16:38:53.550Z,98250.06
2023-03-10T16:41:23.942Z,98251.22
2023-03-10T16:43:51.750Z,98255.88
2023-03-10T16:46:25.320Z,98255.63
2023-03-10T16:48:55.076Z,98256.50
2023-03-10T16:51:28.750Z,98256.00
2023-03-10T16:53:58.873Z,98257.50
2023-03-10T16:56:29.665Z,98253.22
2023-03-10T16:58:57.838Z,98254.63
2023-03-10T17:01:25.959Z,98248.75
2023-03-10T17:03:54.719Z,98246.00
2023-03-10T17:06:25.761Z,98244.28
2023-03-10T17:08:54.595Z,98239.47
2023-03-10T17:11:25.172Z,98244.06
2023-03-10T17:13:56.509Z,98241.28
2023-03-10T17:16:28.252Z,98238.38
2023-03-10T17:18:57.963Z,98233.16
2023-03-10T17:21:28.391Z,98235.50
2023-03-10T17:23:56.643Z,98236.88
2023-03-10T17:26:24.698Z,98228.31
2023-03-10T17:28:54.099Z,98237.13
2023-03-10T17:31:26.945Z,98252.53
2023-03-10T17:33:55.563Z,98256.88
2023-03-10T17:36:23.642Z,98261.69
2023-03-10T17:38:53.346Z,98254.97
2023-03-10T17:41:21.466Z,98255.31
2023-03-10T17:43:49.146Z,98261.84
2023-03-10T17:46:20.339Z,98257.63
2023-03-10T17:48:48.236Z,98243.34
2023-03-10T17:51:17.410Z,98234.19
2023-03-10T17:53:45.690Z,98234.69
2023-03-10T17:56:14.529Z,98230.69
2023-03-10T17:58:43.213Z,98224.44
2023-03-10T18:01:12.451Z,98225.28
2023-03-10T18:03:41.581Z,98220.38
2023-03-10T18:06:14.069Z,98227.66
2023-03-10T18:08:42.272Z,98228.19
2023-03-10T18:11:10.315Z,98228.50
2023-03-10T18:13:38.688Z,98231.19
2023-03-10T18:16:07.852Z,98241.00
2023-03-10T18:18:35.559Z,98247.78
2023-03-10T18:21:04.700Z,98259.13
2023-03-10T18:23:32.334Z,98249.91
2023-03-10T18:26:00.114Z,98237.94
2023-03-10T18:28:27.783Z,98230.19
2023-03-10T18:30:55.472Z,98225.84
2023-03-10T18:33:23.121Z,98213.44
2023-03-10T18:35:50.812Z,98206.66
2023-03-10T18:38:21.117Z,98215.94
2023-03-10T18:40:48.738Z,98217.38
2023-03-10T18:43:16.366Z,98216.88
2023-03-10T18:45:44.752Z,98213.13
2023-03-10T18:48:12.466Z,98220.16
2023-03-10T18:50:40.132Z,98216.34
2023-03-10T18:53:07.793Z,98217.16
2023-03-10T18:55:36.875Z,98212.91
2023-03-10T18:58:04.894Z,98213.41
2023-03-10T19:00:32.834Z,98207.25
2023-03-10T19:03:00.614Z,98201.50
2023-03-10T19:05:28.969Z,98196.38
2023-03-10T19:07:56.804Z,98198.03
2023-03-10T19:10:24.584Z,98190.78
2023-03-10T19:12:53.670Z,98188.38
2023-03-10T19:15:21.478Z,98179.09
2023-03-10T19:17:49.159Z,98181.00
2023-03-10T19:20:18.292Z,98176.69
2023-03-10T19:22:50.502Z,98182.31
2023-03-10T19:25:18.870Z,98177.78
2023-03-10T19:27:48.812Z,98186.41
2023-03-10T19:30:19.935Z,98187.50
2023-03-10T19:32:48.449Z,98185.59
2023-03-10T19:35:18.383Z,98189.41
2023-03-10T19:37:47.172Z,98188.38
2023-03-10T19:40:17.077Z,98190.28
2023-03-10T19:42:45.807Z,98185.66
2023-03-10T19:45:15.493Z,98195.97
2023-03-10T19:47:45.702Z,98191.38
2023-03-10T19:50:15.454Z,98191.91
2023-03-10T19:52:46.840Z,98198.41
2023-03-10T19:55:19.431Z,98193.53
2023-03-10T19:57:48.139Z,98191.66
2023-03-10T20:00:20.551Z,98179.22
2023-03-10T20:02:49.643Z,98179.22
2023-03-10T20:05:17.763Z,98180.00
2023-03-10T20:07:46.883Z,98181.69
2023-03-10T20:10:16.256Z,98174.91
2023-03-10T20:12:44.062Z,98169.75
2023-03-10T20:15:12.346Z,98166.53
2023-03-10T20:17:40.166Z,98162.22
2023-03-10T20:20:11.061Z,98152.50
2023-03-10T20:22:40.037Z,98151.75
2023-03-10T20:25:09.354Z,98153.31
2023-03-10T20:27:37.627Z,98147.66
2023-03-10T20:30:07.641Z,98150.38
2023-03-10T20:32:35.935Z,98133.56
2023-03-10T20:35:04.502Z,98139.28
2023-03-10T20:37:35.657Z,98143.94
2023-03-10T20:40:05.681Z,98142.00
2023-03-10T20:42:33.852Z,98143.94
2023-03-10T20:45:02.421Z,98146.56
2023-03-10T20:47:30.159Z,98142.00
2023-03-10T20:49:58.132Z,98138.00
2023-03-10T20:52:25.853Z,98141.50
2023-03-10T20:54:55.638Z,98149.56
2023-03-10T20:57:23.485Z,98146.13
2023-03-10T20:59:51.164Z,98137.75
2023-03-10T21:02:19.374Z,98139.38
2023-03-10T21:04:47.725Z,98143.69
2023-03-10T21:07:15.441Z,98135.88
2023-03-10T21:09:44.884Z,98143.44
2023-03-10T21:12:18.413Z,98137.25
2023-03-10T21:14:46.280Z,98141.28
2023-03-10T21:17:14.022Z,98139.94
2023-03-10T21:19:41.735Z,98144.03
2023-03-10T21:22:09.613Z,98147.56
2023-03-10T21:24:37.879Z,98150.31
2023-03-10T21:27:05.806Z,98147.63
2023-03-10T21:29:36.681Z,98143.75
2023-03-10T21:32:04.895Z,98134.88
2023-03-10T21:34:33.220Z,98123.59
2023-03-10T21:37:01.655Z,98134.69
2023-03-10T21:39:29.339Z,98127.69
2023-03-10T21:41:56.964Z,98133.84
2023-03-10T21:44:24.611Z,98136.28
2023-03-10T21:46:53.641Z,98134.13
2023-03-10T21:49:21.934Z,98137.13
2023-03-10T21:51:49.928Z,98135.00
2023-03-10T21:54:17.652Z,98134.69
2023-03-10T21:56:45.295Z,98133.31
2023-03-10T21:59:12.875Z,98138.50
2023-03-10T22:01:40.627Z,98131.41
2023-03-10T22:04:10.886Z,98128.72
2023-03-10T22:06:38.618Z,98129.00
2023-03-10T22:09:06.667Z,98127.09
2023-03-10T22:11:34.542Z,98118.25
2023-03-10T22:14:02.229Z,98123.19
2023-03-10T22:16:29.938Z,98121.47
2023-03-10T22:18:57.581Z,98124.75
2023-03-10T22:21:26.724Z,98124.28
2023-03-10T22:23:54.442Z,98119.91
2023-03-10T22:26:22.060Z,98112.38
2023-03-10T22:28:49.691Z,98112.16
2023-03-10T22:31:18.187Z,98104.56
2023-03-10T22:33:45.871Z,98108.06
2023-03-10T22:36:14.281Z,98105.91
2023-03-10T22:38:43.307Z,98107.88
2023-03-10T22:41:12.315Z,98100.00
2023-03-10T22:43:40.024Z,98114.03
2023-03-10T22:46:09.634Z,98116.16
2023-03-10T22:48:37.360Z,98112.66
2023-03-10T22:51:07.231Z,98112.38
2023-03-10T22:53:37.449Z,98110.81
2023-03-10T22:56:07.237Z,98116.16
2023-03-10T22:58:34.870Z,98111.09
2023-03-10T23:01:02.584Z,98114.88
2023-03-10T23:03:30.417Z,98123.28
2023-03-10T23:06:00.845Z,98120.28
2023-03-10T23:08:28.671Z,98126.56
2023-03-10T23:10:56.358Z,98126.00
2023-03-10T23:13:25.426Z,98135.72
2023-03-10T23:15:53.084Z,98136.56
2023-03-10T23:18:21.316Z,98135.25
2023-03-10T23:20:49.815Z,98141.75
2023-03-10T23:23:19.026Z,98142.81
2023-03-10T23:25:48.658Z,98139.66
2023-03-10T23:28:17.888Z,98144.78
2023-03-10T23:30:48.403Z,98152.03
2023-03-10T23:33:17.258Z,98139.06
2023-03-10T23:35:46.156Z,98150.41
2023-03-10T23:38:13.951Z,98151.81
2023-03-10T23:40:41.671Z,98148.06
2023-03-10T23:43:09.325Z,98150.75
2023-03-10T23:45:38.459Z,98152.31
2023-03-10T23:48:11.969Z,98147.69
2023-03-10T23:50:42.501Z,98154.31
2023-03-10T23:53:10.827Z,98163.81
2023-03-10T23:55:40.624Z,98161.69
2023-03-10T23:58:08.802Z,98161.69
